Evanston Regional Hospital, WY

11:33 PM MDT on May 23, 2015 (GMT -0600)
Evanston-Uinta County Burns | | Change Station
CLOSE
Current Station
Airport
Location: Evanston,
Elevation: 7142 ft
Nearby Weather Stations

Elev 7142 ft 41.27 °N, 111.03 °W | Updated 40 minutes ago

Mostly Cloudy
Mostly Cloudy
42 °F
Feels Like 39 °F
N
5
Wind Variable Wind from SW

Today
High -- | Low -- °F
--% Chance of Precip.
Yesterday
High -- | Low -- °F
Precip. -- in
5:58 AM 8:43 PM
Waxing Crescent, 36% visible
Pressure 29.89 in
Visibility 10.0 miles
Clouds Mostly Cloudy 2600 ft
Windchill 39 °F
Dew Point 36 °F
Humidity 79%
Rainfall 0.14 in
Snow Depth Not available.
UV 0 out of 12
Pollen 5.40 out of 12
Air Quality Not available.
Flu Activity Sporadic
METAR KEVW 240453Z AUTO 22004KT 10SM BKN026 06/02 A3003 RMK AO2 SLP120 T00560022

More Conditions Fewer Conditions

Pressure 29.89 in
Visibility 10.0 miles
Clouds Mostly Cloudy 2600 ft
Windchill 39 °F
Dew Point 36 °F
Humidity 79%
Rainfall 0.14 in
Snow Depth Not available.
UV 0 out of 12
Pollen 5.40 out of 12
Air Quality Not available.
Flu Activity Sporadic
METAR KEVW 240453Z AUTO 22004KT 10SM BKN026 06/02 A3003 RMK AO2 SLP120 T00560022

More Conditions Fewer Conditions

10-Day Weather Forecast

Almanac

Astronomy

May. 23, 2015 Rise Set
Actual Time
Civil Twilight
Nautical Twilight
Astronomical Twilight
Moon
Length of Visible Light
Length of Day
Tomorrow will be .
, % of the Moon is Illuminated

Today's Extremes

State Highs State Lows

Community

WunderPhotos

Upload Photos

1,823,693 photos uploaded!

WunderBlogs® & News

Nearby

Air Quality

  Air Quality AQ Index Pollutant
Not available.

Snow Depth

Station Depth Elevation

Earthquake Activity

City Distance Mag. Time & Date
Minimum magnitude displayed is 2.5.

Coastal Water Temperatures

Place Temperature

Stations

Nearby Weather Stations

Station Location Temp. Windchill Dew Point Humidity Wind Precip. Elev Updated Type